Time;durP1;ratioP1;P1;durP2;ratioP2;P2;SDS_P1;SDS_P2;PMS_P1;PMS_P2;Temp;Humidity;BMP_temperature;BMP_pressure;BME280_temperature;BME280_humidity;BME280_pressure;Samples;Min_cycle;Max_cycle;Signal;HPM_P1;HPM_P2
2022/08/22 04:01:52;;;;;;;8.60;5.90;;;12.60;99.90;;;;;;5623846;23;19930;-78
2022/08/22 04:04:43;;;;;;;9.57;5.53;;;12.50;99.90;;;;;;5017535;28;20049;-78
2022/08/22 04:07:18;;;;;;;10.02;5.20;;;12.50;99.90;;;;;;5016264;28;20088;-78
2022/08/22 04:09:54;;;;;;;6.70;5.53;;;12.40;99.90;;;;;;5016527;28;20121;-78
2022/08/22 04:12:48;;;;;;;8.27;5.60;;;12.40;99.90;;;;;;5016389;28;20031;-78
2022/08/22 04:15:44;;;;;;;8.13;5.35;;;12.50;99.90;;;;;;5018415;28;20039;-78
2022/08/22 04:18:44;;;;;;;7.82;5.50;;;12.50;99.90;;;;;;5018071;28;20030;-77
2022/08/22 04:21:13;;;;;;;8.43;5.60;;;12.50;99.90;;;;;;5017512;28;20097;-78
2022/08/22 04:23:46;;;;;;;9.55;6.22;;;12.50;99.90;;;;;;5017681;28;20550;-78
2022/08/22 04:26:34;;;;;;;8.20;5.65;;;12.50;99.90;;;;;;5015892;28;20419;-78
2022/08/22 04:29:26;;;;;;;8.85;5.95;;;12.50;99.90;;;;;;5016090;28;20038;-78
2022/08/22 04:32:30;;;;;;;9.50;6.00;;;12.50;99.90;;;;;;5015903;28;20045;-78
2022/08/22 04:35:16;;;;;;;8.00;5.75;;;12.40;99.90;;;;;;5012668;28;20042;-78
2022/08/22 04:38:19;;;;;;;10.10;6.15;;;12.40;99.90;;;;;;5017301;28;20447;-78
2022/08/22 04:40:55;;;;;;;9.60;6.15;;;12.50;99.90;;;;;;5017544;28;20026;-77
2022/08/22 04:43:35;;;;;;;8.95;6.07;;;12.60;99.90;;;;;;5017083;28;20039;-77
2022/08/22 04:46:56;;;;;;;8.98;6.35;;;12.50;99.90;;;;;;5015643;28;20045;-78
2022/08/22 04:49:22;;;;;;;9.73;6.25;;;12.60;99.90;;;;;;4991417;28;20043;-78
2022/08/22 04:52:08;;;;;;;9.95;5.78;;;12.60;99.90;;;;;;5017217;28;20034;-78
2022/08/22 04:54:56;;;;;;;7.93;5.63;;;12.50;99.90;;;;;;5015402;28;20034;-78
2022/08/22 04:57:33;;;;;;;9.13;5.63;;;12.50;99.90;;;;;;5017094;28;20601;-78
2022/08/22 05:00:02;;;;;;;9.35;5.78;;;12.40;99.90;;;;;;5017267;28;20042;-78
2022/08/22 05:02:27;;;;;;;8.02;5.85;;;12.50;99.90;;;;;;5015178;28;20049;-78
2022/08/22 05:05:03;;;;;;;8.15;5.70;;;12.60;99.90;;;;;;5016628;28;20034;-78
2022/08/22 05:07:37;;;;;;;11.27;5.45;;;12.70;99.90;;;;;;5015527;28;20519;-78
2022/08/22 05:10:12;;;;;;;9.00;5.82;;;12.80;99.90;;;;;;5016905;28;20034;-78
2022/08/22 05:13:01;;;;;;;10.68;5.40;;;12.90;99.90;;;;;;5016863;28;20049;-78
2022/08/22 05:15:33;;;;;;;9.55;5.25;;;13.00;99.90;;;;;;5014917;28;20030;-78
2022/08/22 05:18:06;;;;;;;7.47;5.30;;;12.90;99.90;;;;;;5016890;28;20041;-78
2022/08/22 05:20:33;;;;;;;7.22;4.97;;;13.00;99.90;;;;;;5015082;28;20526;-78
2022/08/22 05:23:05;;;;;;;7.38;5.25;;;12.90;99.90;;;;;;5016671;28;20176;-78
2022/08/22 05:25:33;;;;;;;7.25;5.72;;;12.90;99.90;;;;;;5014977;28;20129;-77
2022/08/22 05:28:11;;;;;;;10.48;6.25;;;12.80;99.90;;;;;;5015289;28;20396;-78
2022/08/22 05:30:38;;;;;;;7.80;5.63;;;12.80;99.90;;;;;;5016451;28;20046;-78
2022/08/22 05:33:09;;;;;;;11.15;6.75;;;12.90;99.90;;;;;;5014997;28;20042;-78
2022/08/22 05:35:39;;;;;;;8.77;5.80;;;13.10;99.90;;;;;;5014788;28;20142;-78
2022/08/22 05:38:08;;;;;;;10.77;6.65;;;13.20;99.90;;;;;;5016471;28;20097;-78
2022/08/22 05:40:36;;;;;;;12.77;6.60;;;13.30;99.90;;;;;;5014766;28;20104;-78
2022/08/22 05:43:02;;;;;;;14.93;6.50;;;13.40;99.90;;;;;;5016281;28;20477;-78
2022/08/22 05:45:28;;;;;;;11.02;6.97;;;13.50;99.90;;;;;;5014607;28;20054;-78
2022/08/22 05:48:08;;;;;;;11.60;6.53;;;13.60;99.90;;;;;;5016323;28;20039;-78
2022/08/22 05:50:54;;;;;;;9.88;6.70;;;13.70;99.90;;;;;;5016262;28;20074;-77
2022/08/22 05:53:36;;;;;;;8.63;6.57;;;13.80;99.90;;;;;;5016679;28;20035;-78
2022/08/22 05:56:09;;;;;;;10.30;6.93;;;13.80;99.90;;;;;;5016115;28;20117;-78
2022/08/22 05:58:43;;;;;;;8.75;6.22;;;13.90;99.90;;;;;;5014964;28;20396;-78
2022/08/22 06:01:31;;;;;;;13.60;6.95;;;14.00;99.90;;;;;;5014352;28;20042;-78
2022/08/22 06:04:10;;;;;;;9.07;6.72;;;14.10;99.90;;;;;;5015861;28;20042;-78
2022/08/22 06:06:53;;;;;;;9.18;7.32;;;14.10;99.90;;;;;;5016369;28;20027;-77
2022/08/22 06:09:46;;;;;;;15.13;6.82;;;14.20;99.90;;;;;;5014702;28;20065;-77
2022/08/22 06:12:53;;;;;;;14.88;7.10;;;14.30;99.90;;;;;;5014471;28;20030;-77
2022/08/22 06:15:39;;;;;;;10.38;7.20;;;14.40;99.90;;;;;;5008433;28;20122;-77
2022/08/22 06:18:10;;;;;;;9.63;6.53;;;14.40;99.90;;;;;;5014398;28;20034;-77
2022/08/22 06:20:49;;;;;;;12.45;7.68;;;14.50;99.90;;;;;;5015939;28;20084;-77
2022/08/22 06:23:26;;;;;;;9.55;7.13;;;14.60;99.90;;;;;;5015364;28;20038;-77
2022/08/22 06:25:55;;;;;;;11.63;7.05;;;14.70;99.90;;;;;;5014067;28;20043;-78
2022/08/22 06:28:25;;;;;;;9.38;7.80;;;14.80;99.90;;;;;;5015380;28;20156;-77
2022/08/22 06:30:53;;;;;;;9.85;7.28;;;14.80;99.90;;;;;;5015498;28;20125;-77
2022/08/22 06:33:26;;;;;;;10.27;8.38;;;14.90;99.90;;;;;;5015644;28;20053;-77
2022/08/22 06:39:17;;;;;;;8.32;7.10;;;15.10;99.90;;;;;;5015672;28;20403;-77
2022/08/22 06:41:46;;;;;;;11.48;7.55;;;15.20;99.90;;;;;;5015399;28;20486;-77
2022/08/22 06:44:16;;;;;;;11.65;7.88;;;15.30;99.90;;;;;;5014963;28;20400;-77
2022/08/22 06:46:44;;;;;;;11.80;8.13;;;15.30;99.90;;;;;;5013967;28;20468;-77
2022/08/22 06:49:11;;;;;;;11.85;7.68;;;15.50;99.90;;;;;;5015110;28;20034;-77
2022/08/22 06:51:38;;;;;;;10.52;7.43;;;15.50;99.90;;;;;;5013760;28;20038;-77
2022/08/22 06:54:10;;;;;;;10.27;7.57;;;15.60;99.90;;;;;;5013515;28;20034;-77
2022/08/22 06:56:43;;;;;;;10.98;7.25;;;15.70;99.90;;;;;;5015450;28;20031;-77
2022/08/22 06:59:14;;;;;;;11.23;7.43;;;15.80;99.90;;;;;;5015425;28;20065;-77
2022/08/22 07:02:02;;;;;;;8.63;6.80;;;15.90;99.90;;;;;;5014927;28;20058;-77
2022/08/22 07:04:29;;;;;;;9.02;6.60;;;16.00;99.90;;;;;;5013387;28;20042;-77
2022/08/22 07:06:57;;;;;;;12.30;7.30;;;16.10;99.90;;;;;;5014028;28;20121;-77
2022/08/22 07:09:26;;;;;;;12.45;6.82;;;16.30;99.90;;;;;;5014987;28;20073;-77
2022/08/22 07:11:55;;;;;;;9.60;6.70;;;16.40;99.90;;;;;;5014920;28;20030;-77
2022/08/22 07:14:30;;;;;;;10.98;6.65;;;16.60;99.90;;;;;;5014557;28;20034;-78
2022/08/22 07:16:59;;;;;;;15.65;7.15;;;16.70;99.90;;;;;;5013818;28;20054;-76
2022/08/22 07:19:29;;;;;;;11.43;6.65;;;16.90;99.90;;;;;;5013395;28;20034;-77
2022/08/22 07:21:56;;;;;;;17.75;7.22;;;17.00;99.90;;;;;;5014942;28;20552;-76
2022/08/22 07:24:28;;;;;;;9.15;6.32;;;17.10;99.90;;;;;;5014595;28;20045;-77
2022/08/22 07:27:26;;;;;;;11.20;6.60;;;17.40;99.90;;;;;;5013393;28;20113;-77
2022/08/22 07:30:10;;;;;;;10.30;6.32;;;17.50;99.90;;;;;;5000152;28;20097;-77
2022/08/22 07:33:00;;;;;;;10.55;6.35;;;17.70;99.90;;;;;;4995343;28;20082;-78
2022/08/22 07:35:27;;;;;;;10.38;6.50;;;18.00;99.90;;;;;;5002311;28;20046;-77
2022/08/22 07:38:09;;;;;;;8.73;6.43;;;18.30;99.90;;;;;;5014865;28;20031;-77
2022/08/22 07:41:00;;;;;;;11.48;6.65;;;18.50;99.90;;;;;;5013424;28;20035;-77
2022/08/22 07:43:37;;;;;;;9.75;6.03;;;18.70;99.90;;;;;;5014999;28;20035;-76
2022/08/22 07:46:23;;;;;;;10.85;6.22;;;19.00;99.90;;;;;;5014740;28;20089;-77
2022/08/22 07:48:53;;;;;;;18.42;6.10;;;19.20;99.90;;;;;;5015293;28;20412;-77
2022/08/22 07:51:39;;;;;;;8.95;5.72;;;19.40;99.90;;;;;;5015008;28;20518;-79
2022/08/22 07:54:08;;;;;;;9.30;5.72;;;19.60;99.90;;;;;;5046438;28;20030;-76
2022/08/22 07:56:41;;;;;;;9.85;5.38;;;19.90;99.90;;;;;;5016121;28;20109;-78
2022/08/22 07:59:13;;;;;;;9.77;5.40;;;20.20;99.90;;;;;;5015746;28;20031;-77
2022/08/22 08:01:47;;;;;;;11.43;6.15;;;20.40;99.90;;;;;;5014760;28;20030;-80
2022/08/22 08:04:18;;;;;;;8.90;5.68;;;20.60;99.90;;;;;;5014739;28;20042;-79
2022/08/22 08:06:49;;;;;;;7.00;4.93;;;20.70;99.90;;;;;;5015002;28;20073;-78
2022/08/22 08:09:16;;;;;;;8.10;5.10;;;21.00;99.90;;;;;;5013520;28;20034;-75
2022/08/22 08:11:43;;;;;;;10.65;5.55;;;21.20;99.30;;;;;;5014303;28;20535;-75
2022/08/22 08:14:11;;;;;;;9.07;5.75;;;21.30;98.60;;;;;;5014923;28;20073;-81
2022/08/22 08:17:03;;;;;;;6.97;4.80;;;21.50;99.00;;;;;;5014497;28;20477;-80
2022/08/22 08:19:32;;;;;;;7.28;5.00;;;21.80;98.40;;;;;;5015484;28;20041;-78
2022/08/22 08:21:58;;;;;;;7.28;4.80;;;22.10;97.50;;;;;;5013694;28;20035;-75
2022/08/22 08:24:36;;;;;;;9.00;5.00;;;22.10;97.90;;;;;;5014016;28;20046;-75
2022/08/22 08:30:00;;;;;;;9.25;4.18;;;22.50;96.20;;;;;;5014485;28;20847;-76
2022/08/22 08:32:32;;;;;;;7.63;4.68;;;22.70;95.10;;;;;;5014375;28;20109;-76
2022/08/22 08:35:27;;;;;;;9.30;4.60;;;22.90;94.40;;;;;;5014188;28;20556;-74
2022/08/22 08:38:06;;;;;;;6.32;4.38;;;23.20;93.80;;;;;;5013418;28;20470;-76
2022/08/22 08:40:43;;;;;;;6.72;3.90;;;23.40;93.30;;;;;;5013939;28;20085;-74
2022/08/22 08:43:33;;;;;;;6.60;4.72;;;23.70;92.70;;;;;;5014338;28;20042;-76
2022/08/22 08:46:11;;;;;;;7.43;4.43;;;23.70;92.50;;;;;;5014995;28;20796;-75
2022/08/22 08:48:54;;;;;;;5.57;4.38;;;23.80;92.10;;;;;;5016163;28;20121;-76
2022/08/22 08:51:49;;;;;;;5.18;4.13;;;23.90;92.00;;;;;;5015717;28;20539;-77
2022/08/22 08:54:33;;;;;;;6.15;4.20;;;24.20;91.40;;;;;;5016038;28;20118;-74
2022/08/22 08:57:19;;;;;;;7.57;4.43;;;24.40;91.20;;;;;;5017789;28;20030;-75
2022/08/22 09:00:00;;;;;;;6.07;3.92;;;24.70;90.50;;;;;;5007311;28;20039;-76
2022/08/22 09:02:29;;;;;;;7.95;4.40;;;24.80;90.40;;;;;;5010173;28;20092;-79
2022/08/22 09:05:04;;;;;;;6.85;4.60;;;25.10;90.40;;;;;;5017226;28;20050;-76
2022/08/22 09:08:11;;;;;;;5.72;4.47;;;25.40;89.20;;;;;;5017396;28;20034;-76
2022/08/22 09:10:58;;;;;;;5.63;3.92;;;25.30;89.90;;;;;;5007910;28;20046;-77
2022/08/22 09:13:47;;;;;;;6.93;4.50;;;25.50;88.90;;;;;;5005121;28;20072;-79
2022/08/22 09:17:00;;;;;;;4.68;3.95;;;25.70;86.80;;;;;;4995936;28;20050;-77
2022/08/22 09:20:03;;;;;;;5.97;4.03;;;25.80;87.10;;;;;;5007466;28;20049;-77
2022/08/22 09:23:04;;;;;;;7.00;4.25;;;26.00;85.20;;;;;;4995992;28;20037;-77
2022/08/22 09:25:34;;;;;;;6.85;4.47;;;26.20;86.30;;;;;;4998408;28;20038;-79
2022/08/22 09:28:03;;;;;;;5.72;4.05;;;26.10;85.30;;;;;;4998686;28;20031;-79
2022/08/22 09:30:56;;;;;;;4.13;3.72;;;26.50;84.30;;;;;;4999395;28;20046;-79
2022/08/22 09:33:28;;;;;;;5.60;4.00;;;26.70;82.20;;;;;;4989509;28;20097;-77
2022/08/22 09:35:58;;;;;;;4.65;4.15;;;26.80;82.90;;;;;;4997551;28;20096;-81
2022/08/22 09:38:34;;;;;;;5.38;4.00;;;27.00;81.40;;;;;;4999361;28;20121;-80
2022/08/22 09:41:21;;;;;;;4.43;4.03;;;27.00;82.60;;;;;;4998733;28;20090;-79
2022/08/22 09:43:54;;;;;;;4.60;3.92;;;27.20;80.20;;;;;;5003106;28;20034;-80
2022/08/22 09:46:24;;;;;;;5.25;4.00;;;27.30;79.60;;;;;;5000798;28;20046;-80
2022/08/22 09:49:07;;;;;;;6.75;3.97;;;27.20;78.00;;;;;;5001696;28;20121;-80
2022/08/22 09:51:46;;;;;;;4.10;3.70;;;27.10;78.90;;;;;;5002030;28;20027;-80
2022/08/22 09:54:28;;;;;;;5.00;3.70;;;27.40;78.10;;;;;;5001476;28;20515;-79
2022/08/22 09:57:12;;;;;;;5.65;3.60;;;27.80;77.20;;;;;;4999296;28;20045;-78
2022/08/22 09:59:56;;;;;;;5.95;4.03;;;27.90;74.70;;;;;;5004974;28;20034;-79
2022/08/22 10:02:34;;;;;;;3.85;3.35;;;28.10;73.70;;;;;;4996017;28;20041;-79
